Main page
METAR-TAF:

METAR-TAF

Airports :

Atkinson Municipal Airport

Pittsburg, Kansas, United States

latitude: 37-26-58N, longitude: 094-43-52W, elevation: 951 ft

Current weather observation

The report was made 21 minutes ago, at 11:35 UTC
Calm wind
Temperature 61°F
Humidity 94%
Pressure 29.83 in. Hg
Visibility: 10 miles
Scattered clouds at a height of 4500 ft

METAR: KPTS 231135Z AUTO 00000KT 10SM SCT045 16/15 A2983 RMK AO2 T01600150 PWINO

Time: 06:56 (11:56 UTC)


TAF: missing

Weather observations and forecasts of more than 4000 airports (METAR and TAF reports).

The available stations are represented by yellow and red dots on the map.

Hover mouse over dot to see the name of the station.

Then click to see weather observations and forecasts.

To change the map : click on the green buttons with a black cross to zoom in, on the green button with a dash to zoom out, or on the green arrows for adjacent maps.


METAR-TAF: